Campanya Meteocatpedra
Centenari de l'SMC: 100 anys mirant el cel

Dades de l'estació automàtica Terrassa

?
?

Resum diari

23:00 TU
Dades diàries de l'estació meteorològica
Temperatura mitjana 17.7 °C
Temperatura màxima 26.1 °C 13:44 TU
Temperatura mínima 13.5 °C 22:05 TU
Humitat relativa mitjana 70%
Precipitació acumulada 0.5 mm
Ratxa màxima del vent (10 m) 33.8 km/h - 75º 18:04 TU
Irradiació solar global 16.2 MJ/m2

El tram horari està expressat en Temps Universal (TU). Cal sumar una hora en horari d'hivern i dues en horari d'estiu per passar a l'hora oficial.

Terrassa

Metadades estació meteorològica
Municipi Terrassa
Comarca Vallès Occidental
Altitud 313 m
Data alta 20.12.2018
Estat actual Operativa
Dades de període
Període
TU
TM
°C
TX
°C
TN
°C
HRM
%
PPT
mm
VVM (10 m)
km/h
DVM (10 m)
graus
VVX (10 m)
km/h
RS
W/m2
00:00 - 00:30 15.8 15.9 15.5 78 0.0 2.9 246 5.4 0
00:30 - 01:00 15.4 15.6 15.3 80 0.0 2.9 259 5.4 0
01:00 - 01:30 15.3 15.6 15.0 81 0.0 4.0 259 7.6 0
01:30 - 02:00 15.8 16.8 15.4 77 0.0 1.4 248 4.7 0
02:00 - 02:30 16.7 17.0 16.4 68 0.0 5.4 312 13.3 0
02:30 - 03:00 16.1 16.7 15.2 72 0.0 7.6 301 15.8 0
03:00 - 03:30 15.6 16.2 15.2 73 0.0 4.7 283 11.5 0
03:30 - 04:00 15.6 15.9 15.2 72 0.0 4.3 291 8.6 0
04:00 - 04:30 15.3 15.6 15.0 73 0.0 5.0 283 15.5 0
04:30 - 05:00 15.6 15.8 15.4 71 0.0 8.3 294 15.5 0
05:00 - 05:30 15.4 15.6 15.0 72 0.0 5.0 298 11.2 0
05:30 - 06:00 15.4 15.8 14.9 71 0.0 7.2 305 18.0 13
06:00 - 06:30 15.4 15.7 15.3 71 0.0 7.6 298 18.4 51
06:30 - 07:00 16.0 16.4 15.5 69 0.0 7.9 305 25.9 159
07:00 - 07:30 16.3 16.4 16.1 67 0.0 10.4 316 23.8 183
07:30 - 08:00 16.9 17.5 16.1 65 0.0 9.0 297 25.9 349
08:00 - 08:30 17.2 17.7 16.9 64 0.0 11.2 303 24.1 333
08:30 - 09:00 17.2 17.6 16.9 66 0.0 10.1 287 20.2 273
09:00 - 09:30 18.6 19.6 17.7 62 0.0 10.4 299 19.4 484
09:30 - 10:00 20.0 20.9 19.2 57 0.0 9.7 291 18.4 657
10:00 - 10:30 21.5 22.0 20.8 53 0.0 12.2 283 25.2 780
10:30 - 11:00 22.0 22.5 21.2 51 0.0 14.8 299 28.4 756
11:00 - 11:30 21.6 22.7 20.7 52 0.0 13.3 289 27.4 644
11:30 - 12:00 22.9 23.4 21.9 46 0.0 9.7 288 20.9 706
12:00 - 12:30 21.9 22.9 21.4 48 0.0 7.2 297 14.8 505
12:30 - 13:00 22.0 22.6 21.5 49 0.0 5.8 336 13.3 336
13:00 - 13:30 22.5 24.0 22.0 47 0.0 5.0 248 21.6 394
13:30 - 14:00 24.8 26.1 23.7 39 0.0 14.4 234 31.7 753
14:00 - 14:30 24.1 24.9 22.4 43 0.0 16.9 217 32.8 551
14:30 - 15:00 21.9 22.5 21.5 62 0.0 16.2 165 28.4 264
15:00 - 15:30 22.1 22.7 21.2 63 0.0 17.6 156 28.1 446
15:30 - 16:00 21.0 21.9 20.2 69 0.0 18.7 162 28.8 203
16:00 - 16:30 20.1 20.3 19.9 73 0.0 14.8 157 26.6 117
16:30 - 17:00 19.5 19.9 18.2 76 0.0 14.8 115 25.6 36
17:00 - 17:30 16.8 17.9 15.8 78 0.5 11.5 80 26.6 55
17:30 - 18:00 16.1 16.3 16.0 84 0.0 13.3 74 27.7 7
18:00 - 18:30 16.0 16.2 15.7 88 0.0 19.1 79 33.8 0
18:30 - 19:00 15.9 16.0 15.7 83 0.0 16.6 72 27.0 0
19:00 - 19:30 16.0 16.1 15.9 80 0.0 14.8 82 23.4 0
19:30 - 20:00 15.9 16.0 15.7 79 0.0 16.9 86 28.1 0
20:00 - 20:30 15.5 15.7 15.3 81 0.0 11.9 96 18.0 0
20:30 - 21:00 15.2 15.3 14.9 84 0.0 9.7 97 18.0 0
21:00 - 21:30 14.4 14.9 13.8 89 0.0 3.6 154 10.8 0
21:30 - 22:00 14.4 14.6 13.8 88 0.0 5.0 275 10.4 0
22:00 - 22:30 13.9 14.1 13.5 90 0.0 2.2 20 5.4 0
22:30 - 23:00 14.2 14.5 13.8 87 0.0 2.5 97 6.5 0
23:00 - 23:30 14.3 14.6 13.9 86 0.0 1.8 105 4.7 0

Les dades en taronja només han passat un control de qualitat automàtic. Resta pendent la seva validació definitiva.